sensor_id;sensor_type;location;lat;lon;timestamp;temperature;humidity
52513;DHT22;38422;53.172;6.974;2024-02-16T00:01:10;11.30;99.90
52513;DHT22;38422;53.172;6.974;2024-02-16T00:03:36;11.30;99.90
52513;DHT22;38422;53.172;6.974;2024-02-16T00:06:02;11.30;99.90
52513;DHT22;38422;53.172;6.974;2024-02-16T00:08:27;11.30;99.90
52513;DHT22;38422;53.172;6.974;2024-02-16T00:10:53;11.30;99.90
52513;DHT22;38422;53.172;6.974;2024-02-16T00:13:19;11.30;99.90
52513;DHT22;38422;53.172;6.974;2024-02-16T00:15:45;11.30;99.90
52513;DHT22;38422;53.172;6.974;2024-02-16T00:18:10;11.30;99.90
52513;DHT22;38422;53.172;6.974;2024-02-16T00:20:37;11.20;99.90
52513;DHT22;38422;53.172;6.974;2024-02-16T00:23:03;11.20;99.90
52513;DHT22;38422;53.172;6.974;2024-02-16T00:25:29;11.20;99.90
52513;DHT22;38422;53.172;6.974;2024-02-16T00:27:55;11.20;99.90
52513;DHT22;38422;53.172;6.974;2024-02-16T00:30:21;11.20;99.90
52513;DHT22;38422;53.172;6.974;2024-02-16T00:32:48;11.20;99.90
52513;DHT22;38422;53.172;6.974;2024-02-16T00:35:16;11.20;99.90
52513;DHT22;38422;53.172;6.974;2024-02-16T00:37:43;11.20;99.90
52513;DHT22;38422;53.172;6.974;2024-02-16T00:40:09;11.20;99.90
52513;DHT22;38422;53.172;6.974;2024-02-16T00:42:35;11.20;99.90
52513;DHT22;38422;53.172;6.974;2024-02-16T00:45:01;11.20;99.90
52513;DHT22;38422;53.172;6.974;2024-02-16T00:47:27;11.20;99.90
52513;DHT22;38422;53.172;6.974;2024-02-16T00:49:53;11.10;99.90
52513;DHT22;38422;53.172;6.974;2024-02-16T00:52:19;11.10;99.90
52513;DHT22;38422;53.172;6.974;2024-02-16T00:54:45;11.10;99.90
52513;DHT22;38422;53.172;6.974;2024-02-16T00:57:12;11.10;99.90
52513;DHT22;38422;53.172;6.974;2024-02-16T00:59:40;11.10;99.90
52513;DHT22;38422;53.172;6.974;2024-02-16T01:02:06;11.10;99.90
52513;DHT22;38422;53.172;6.974;2024-02-16T01:04:32;11.10;99.90
52513;DHT22;38422;53.172;6.974;2024-02-16T01:06:59;11.10;99.90
52513;DHT22;38422;53.172;6.974;2024-02-16T01:09:24;11.00;99.90
52513;DHT22;38422;53.172;6.974;2024-02-16T01:11:50;11.00;99.90
52513;DHT22;38422;53.172;6.974;2024-02-16T01:14:16;11.00;99.90
52513;DHT22;38422;53.172;6.974;2024-02-16T01:16:42;11.00;99.90
52513;DHT22;38422;53.172;6.974;2024-02-16T01:19:07;11.00;99.90
52513;DHT22;38422;53.172;6.974;2024-02-16T01:21:35;11.00;99.90
52513;DHT22;38422;53.172;6.974;2024-02-16T01:24:01;11.00;99.90
52513;DHT22;38422;53.172;6.974;2024-02-16T01:26:27;11.00;99.90
52513;DHT22;38422;53.172;6.974;2024-02-16T01:28:53;10.90;99.90
52513;DHT22;38422;53.172;6.974;2024-02-16T01:31:19;10.90;99.90
52513;DHT22;38422;53.172;6.974;2024-02-16T01:33:45;10.90;99.90
52513;DHT22;38422;53.172;6.974;2024-02-16T01:36:11;10.90;99.90
52513;DHT22;38422;53.172;6.974;2024-02-16T01:38:36;10.80;99.90
52513;DHT22;38422;53.172;6.974;2024-02-16T01:41:02;10.90;99.90
52513;DHT22;38422;53.172;6.974;2024-02-16T01:43:28;10.90;99.90
52513;DHT22;38422;53.172;6.974;2024-02-16T01:45:54;10.80;99.90
52513;DHT22;38422;53.172;6.974;2024-02-16T01:48:19;10.80;99.90
52513;DHT22;38422;53.172;6.974;2024-02-16T01:50:46;10.80;99.90
52513;DHT22;38422;53.172;6.974;2024-02-16T01:53:14;10.80;99.90
52513;DHT22;38422;53.172;6.974;2024-02-16T01:55:43;10.80;99.90
52513;DHT22;38422;53.172;6.974;2024-02-16T01:58:08;10.80;99.90
52513;DHT22;38422;53.172;6.974;2024-02-16T02:00:34;10.80;99.90
52513;DHT22;38422;53.172;6.974;2024-02-16T02:03:00;10.70;99.90
52513;DHT22;38422;53.172;6.974;2024-02-16T02:05:26;10.70;99.90
52513;DHT22;38422;53.172;6.974;2024-02-16T02:07:51;10.70;99.90
52513;DHT22;38422;53.172;6.974;2024-02-16T02:10:18;10.70;99.90
52513;DHT22;38422;53.172;6.974;2024-02-16T02:12:44;10.70;99.90
52513;DHT22;38422;53.172;6.974;2024-02-16T02:15:10;10.70;99.90
52513;DHT22;38422;53.172;6.974;2024-02-16T02:17:37;10.70;99.90
52513;DHT22;38422;53.172;6.974;2024-02-16T02:20:03;10.70;99.90
52513;DHT22;38422;53.172;6.974;2024-02-16T02:22:29;10.70;99.90
52513;DHT22;38422;53.172;6.974;2024-02-16T02:24:55;10.70;99.90
52513;DHT22;38422;53.172;6.974;2024-02-16T02:27:21;10.60;99.90
52513;DHT22;38422;53.172;6.974;2024-02-16T02:29:47;10.70;99.90
52513;DHT22;38422;53.172;6.974;2024-02-16T02:32:13;10.70;99.90
52513;DHT22;38422;53.172;6.974;2024-02-16T02:34:39;10.70;99.90
52513;DHT22;38422;53.172;6.974;2024-02-16T02:37:06;10.70;99.90
52513;DHT22;38422;53.172;6.974;2024-02-16T02:39:32;10.70;99.90
52513;DHT22;38422;53.172;6.974;2024-02-16T02:41:58;10.60;99.90
52513;DHT22;38422;53.172;6.974;2024-02-16T02:44:24;10.70;99.90
52513;DHT22;38422;53.172;6.974;2024-02-16T02:46:51;10.70;99.90
52513;DHT22;38422;53.172;6.974;2024-02-16T02:49:17;10.60;99.90
52513;DHT22;38422;53.172;6.974;2024-02-16T02:51:43;10.70;99.90
52513;DHT22;38422;53.172;6.974;2024-02-16T02:54:08;10.70;99.90
52513;DHT22;38422;53.172;6.974;2024-02-16T02:56:34;10.60;99.90
52513;DHT22;38422;53.172;6.974;2024-02-16T02:59:00;10.60;99.90
52513;DHT22;38422;53.172;6.974;2024-02-16T03:01:26;10.60;99.90
52513;DHT22;38422;53.172;6.974;2024-02-16T03:03:52;10.60;99.90
52513;DHT22;38422;53.172;6.974;2024-02-16T03:06:21;10.60;99.90
52513;DHT22;38422;53.172;6.974;2024-02-16T03:08:46;10.60;99.90
52513;DHT22;38422;53.172;6.974;2024-02-16T03:11:12;10.60;99.90
52513;DHT22;38422;53.172;6.974;2024-02-16T03:13:38;10.60;99.90
52513;DHT22;38422;53.172;6.974;2024-02-16T03:16:04;10.50;99.90
52513;DHT22;38422;53.172;6.974;2024-02-16T03:18:33;10.50;99.90
52513;DHT22;38422;53.172;6.974;2024-02-16T03:21:02;10.50;99.90
52513;DHT22;38422;53.172;6.974;2024-02-16T03:23:27;10.50;99.90
52513;DHT22;38422;53.172;6.974;2024-02-16T03:25:53;10.50;99.90
52513;DHT22;38422;53.172;6.974;2024-02-16T03:28:20;10.50;99.90
52513;DHT22;38422;53.172;6.974;2024-02-16T03:30:46;10.50;99.90
52513;DHT22;38422;53.172;6.974;2024-02-16T03:33:12;10.50;99.90
52513;DHT22;38422;53.172;6.974;2024-02-16T03:35:38;10.50;99.90
52513;DHT22;38422;53.172;6.974;2024-02-16T03:38:06;10.50;99.90
52513;DHT22;38422;53.172;6.974;2024-02-16T03:40:31;10.50;99.90
52513;DHT22;38422;53.172;6.974;2024-02-16T03:42:58;10.50;99.90
52513;DHT22;38422;53.172;6.974;2024-02-16T03:45:23;10.40;99.90
52513;DHT22;38422;53.172;6.974;2024-02-16T03:47:50;10.50;99.90
52513;DHT22;38422;53.172;6.974;2024-02-16T03:50:18;10.40;99.90
52513;DHT22;38422;53.172;6.974;2024-02-16T03:52:44;10.50;99.90
52513;DHT22;38422;53.172;6.974;2024-02-16T03:55:10;10.40;99.90
52513;DHT22;38422;53.172;6.974;2024-02-16T03:57:36;10.40;99.90
52513;DHT22;38422;53.172;6.974;2024-02-16T04:00:02;10.40;99.90
52513;DHT22;38422;53.172;6.974;2024-02-16T04:02:31;10.40;99.90
52513;DHT22;38422;53.172;6.974;2024-02-16T04:04:57;10.40;99.90
52513;DHT22;38422;53.172;6.974;2024-02-16T04:07:22;10.40;99.90
52513;DHT22;38422;53.172;6.974;2024-02-16T04:09:49;10.40;99.90
52513;DHT22;38422;53.172;6.974;2024-02-16T04:12:15;10.40;99.90
52513;DHT22;38422;53.172;6.974;2024-02-16T04:14:41;10.40;99.90
52513;DHT22;38422;53.172;6.974;2024-02-16T04:17:07;10.40;99.90
52513;DHT22;38422;53.172;6.974;2024-02-16T04:19:33;10.30;99.90
52513;DHT22;38422;53.172;6.974;2024-02-16T04:21:58;10.30;99.90
52513;DHT22;38422;53.172;6.974;2024-02-16T04:24:24;10.30;99.90
52513;DHT22;38422;53.172;6.974;2024-02-16T04:26:50;10.30;99.90
52513;DHT22;38422;53.172;6.974;2024-02-16T04:29:15;10.30;99.90
52513;DHT22;38422;53.172;6.974;2024-02-16T04:31:42;10.30;99.90
52513;DHT22;38422;53.172;6.974;2024-02-16T04:34:08;10.30;99.90
52513;DHT22;38422;53.172;6.974;2024-02-16T04:36:35;10.30;99.90
52513;DHT22;38422;53.172;6.974;2024-02-16T04:39:01;10.30;99.90
52513;DHT22;38422;53.172;6.974;2024-02-16T04:41:26;10.30;99.90
52513;DHT22;38422;53.172;6.974;2024-02-16T04:43:52;10.30;99.90
52513;DHT22;38422;53.172;6.974;2024-02-16T04:46:19;10.30;99.90
52513;DHT22;38422;53.172;6.974;2024-02-16T04:48:45;10.30;99.90
52513;DHT22;38422;53.172;6.974;2024-02-16T04:51:11;10.30;99.90
52513;DHT22;38422;53.172;6.974;2024-02-16T04:53:37;10.30;99.90
52513;DHT22;38422;53.172;6.974;2024-02-16T04:56:03;10.20;99.90
52513;DHT22;38422;53.172;6.974;2024-02-16T04:58:30;10.20;99.90
52513;DHT22;38422;53.172;6.974;2024-02-16T05:00:57;10.20;99.90
52513;DHT22;38422;53.172;6.974;2024-02-16T05:03:23;10.20;99.90
52513;DHT22;38422;53.172;6.974;2024-02-16T05:05:49;10.20;99.90
52513;DHT22;38422;53.172;6.974;2024-02-16T05:08:15;10.20;99.90
52513;DHT22;38422;53.172;6.974;2024-02-16T05:10:41;10.20;99.90
52513;DHT22;38422;53.172;6.974;2024-02-16T05:13:06;10.20;99.90
52513;DHT22;38422;53.172;6.974;2024-02-16T05:15:32;10.20;99.90
52513;DHT22;38422;53.172;6.974;2024-02-16T05:17:58;10.20;99.90
52513;DHT22;38422;53.172;6.974;2024-02-16T05:20:24;10.20;99.90
52513;DHT22;38422;53.172;6.974;2024-02-16T05:22:50;10.20;99.90
52513;DHT22;38422;53.172;6.974;2024-02-16T05:25:16;10.20;99.90
52513;DHT22;38422;53.172;6.974;2024-02-16T05:27:45;10.20;99.90
52513;DHT22;38422;53.172;6.974;2024-02-16T05:30:11;10.20;99.90
52513;DHT22;38422;53.172;6.974;2024-02-16T05:32:40;10.20;99.90
52513;DHT22;38422;53.172;6.974;2024-02-16T05:35:06;10.20;99.90
52513;DHT22;38422;53.172;6.974;2024-02-16T05:37:47;10.20;99.90
52513;DHT22;38422;53.172;6.974;2024-02-16T05:40:15;10.20;99.90
52513;DHT22;38422;53.172;6.974;2024-02-16T05:42:51;10.20;99.90
52513;DHT22;38422;53.172;6.974;2024-02-16T05:45:17;10.20;99.90
52513;DHT22;38422;53.172;6.974;2024-02-16T05:47:45;10.20;99.90
52513;DHT22;38422;53.172;6.974;2024-02-16T05:50:11;10.20;99.90
52513;DHT22;38422;53.172;6.974;2024-02-16T05:52:38;10.20;99.90
52513;DHT22;38422;53.172;6.974;2024-02-16T05:55:05;10.20;99.90
52513;DHT22;38422;53.172;6.974;2024-02-16T05:57:31;10.10;99.90
52513;DHT22;38422;53.172;6.974;2024-02-16T05:59:57;10.10;99.90
52513;DHT22;38422;53.172;6.974;2024-02-16T06:02:23;10.10;99.90
52513;DHT22;38422;53.172;6.974;2024-02-16T06:04:53;10.10;99.90
52513;DHT22;38422;53.172;6.974;2024-02-16T06:07:19;10.10;99.90
52513;DHT22;38422;53.172;6.974;2024-02-16T06:09:44;10.10;99.90
52513;DHT22;38422;53.172;6.974;2024-02-16T06:12:10;10.10;99.90
52513;DHT22;38422;53.172;6.974;2024-02-16T06:14:38;10.10;99.90
52513;DHT22;38422;53.172;6.974;2024-02-16T06:17:04;10.10;99.90
52513;DHT22;38422;53.172;6.974;2024-02-16T06:19:29;10.10;99.90
52513;DHT22;38422;53.172;6.974;2024-02-16T06:21:56;10.10;99.90
52513;DHT22;38422;53.172;6.974;2024-02-16T06:24:22;10.10;99.90
52513;DHT22;38422;53.172;6.974;2024-02-16T06:26:49;10.10;99.90
52513;DHT22;38422;53.172;6.974;2024-02-16T06:29:15;10.10;99.90
52513;DHT22;38422;53.172;6.974;2024-02-16T06:31:41;10.10;99.90
52513;DHT22;38422;53.172;6.974;2024-02-16T06:34:06;10.10;99.90
52513;DHT22;38422;53.172;6.974;2024-02-16T06:36:34;10.10;99.90
52513;DHT22;38422;53.172;6.974;2024-02-16T06:38:59;10.10;99.90
52513;DHT22;38422;53.172;6.974;2024-02-16T06:41:25;10.10;99.90
52513;DHT22;38422;53.172;6.974;2024-02-16T06:43:51;10.10;99.90
52513;DHT22;38422;53.172;6.974;2024-02-16T06:46:17;10.10;99.90
52513;DHT22;38422;53.172;6.974;2024-02-16T06:48:42;10.10;99.90
52513;DHT22;38422;53.172;6.974;2024-02-16T06:51:08;10.10;99.90
52513;DHT22;38422;53.172;6.974;2024-02-16T06:53:34;10.10;99.90
52513;DHT22;38422;53.172;6.974;2024-02-16T06:56:00;10.10;99.90
52513;DHT22;38422;53.172;6.974;2024-02-16T06:58:25;10.10;99.90
52513;DHT22;38422;53.172;6.974;2024-02-16T07:00:51;10.10;99.90
52513;DHT22;38422;53.172;6.974;2024-02-16T07:03:17;10.10;99.90
52513;DHT22;38422;53.172;6.974;2024-02-16T07:05:43;10.10;99.90
52513;DHT22;38422;53.172;6.974;2024-02-16T07:08:09;10.10;99.90
52513;DHT22;38422;53.172;6.974;2024-02-16T07:10:35;10.10;99.90
52513;DHT22;38422;53.172;6.974;2024-02-16T07:13:01;10.10;99.90
52513;DHT22;38422;53.172;6.974;2024-02-16T07:15:26;10.10;99.90
52513;DHT22;38422;53.172;6.974;2024-02-16T07:17:53;10.20;99.90
52513;DHT22;38422;53.172;6.974;2024-02-16T07:20:19;10.20;99.90
52513;DHT22;38422;53.172;6.974;2024-02-16T07:22:45;10.20;99.90
52513;DHT22;38422;53.172;6.974;2024-02-16T07:25:13;10.20;99.90
52513;DHT22;38422;53.172;6.974;2024-02-16T07:27:39;10.20;99.90
52513;DHT22;38422;53.172;6.974;2024-02-16T07:30:05;10.20;99.90
52513;DHT22;38422;53.172;6.974;2024-02-16T07:32:31;10.20;99.90
52513;DHT22;38422;53.172;6.974;2024-02-16T07:34:56;10.20;99.90
52513;DHT22;38422;53.172;6.974;2024-02-16T07:37:22;10.30;99.90
52513;DHT22;38422;53.172;6.974;2024-02-16T07:39:48;10.30;99.90
52513;DHT22;38422;53.172;6.974;2024-02-16T07:42:13;10.40;99.90
52513;DHT22;38422;53.172;6.974;2024-02-16T07:44:39;10.50;99.90
52513;DHT22;38422;53.172;6.974;2024-02-16T07:47:05;10.50;99.90
52513;DHT22;38422;53.172;6.974;2024-02-16T07:49:31;10.50;99.90
52513;DHT22;38422;53.172;6.974;2024-02-16T07:51:57;10.60;99.90
52513;DHT22;38422;53.172;6.974;2024-02-16T07:54:23;10.60;99.90
52513;DHT22;38422;53.172;6.974;2024-02-16T07:56:49;10.70;99.90
52513;DHT22;38422;53.172;6.974;2024-02-16T07:59:15;10.70;99.90
52513;DHT22;38422;53.172;6.974;2024-02-16T08:01:41;10.80;99.90
52513;DHT22;38422;53.172;6.974;2024-02-16T08:04:10;10.80;99.90
52513;DHT22;38422;53.172;6.974;2024-02-16T08:06:35;10.90;99.90
52513;DHT22;38422;53.172;6.974;2024-02-16T08:09:01;10.90;99.90
52513;DHT22;38422;53.172;6.974;2024-02-16T08:11:27;10.90;99.90
52513;DHT22;38422;53.172;6.974;2024-02-16T08:13:53;10.90;99.90
52513;DHT22;38422;53.172;6.974;2024-02-16T08:16:18;10.90;99.90
52513;DHT22;38422;53.172;6.974;2024-02-16T08:18:44;10.90;99.90
52513;DHT22;38422;53.172;6.974;2024-02-16T08:21:11;10.90;99.90
52513;DHT22;38422;53.172;6.974;2024-02-16T08:23:36;11.00;99.90
52513;DHT22;38422;53.172;6.974;2024-02-16T08:26:03;11.00;99.90
52513;DHT22;38422;53.172;6.974;2024-02-16T08:28:29;11.00;99.90
52513;DHT22;38422;53.172;6.974;2024-02-16T08:30:58;11.00;99.90
52513;DHT22;38422;53.172;6.974;2024-02-16T08:33:24;11.00;99.90
52513;DHT22;38422;53.172;6.974;2024-02-16T08:35:49;11.00;99.90
52513;DHT22;38422;53.172;6.974;2024-02-16T08:38:16;11.00;99.90
52513;DHT22;38422;53.172;6.974;2024-02-16T08:40:41;11.10;99.90
52513;DHT22;38422;53.172;6.974;2024-02-16T08:43:07;11.10;99.90
52513;DHT22;38422;53.172;6.974;2024-02-16T08:45:33;11.10;99.90
52513;DHT22;38422;53.172;6.974;2024-02-16T08:47:59;11.10;99.90
52513;DHT22;38422;53.172;6.974;2024-02-16T08:50:27;11.20;99.90
52513;DHT22;38422;53.172;6.974;2024-02-16T08:52:53;11.20;99.90
52513;DHT22;38422;53.172;6.974;2024-02-16T08:55:20;11.20;99.90
52513;DHT22;38422;53.172;6.974;2024-02-16T08:57:45;11.20;99.90
52513;DHT22;38422;53.172;6.974;2024-02-16T09:00:12;11.30;99.90
52513;DHT22;38422;53.172;6.974;2024-02-16T09:02:38;11.30;99.90
52513;DHT22;38422;53.172;6.974;2024-02-16T09:05:05;11.30;99.90
52513;DHT22;38422;53.172;6.974;2024-02-16T09:07:31;11.30;99.90
52513;DHT22;38422;53.172;6.974;2024-02-16T09:09:56;11.40;99.90
52513;DHT22;38422;53.172;6.974;2024-02-16T09:12:22;11.40;99.90
52513;DHT22;38422;53.172;6.974;2024-02-16T09:14:48;11.40;99.90
52513;DHT22;38422;53.172;6.974;2024-02-16T09:17:14;11.40;99.90
52513;DHT22;38422;53.172;6.974;2024-02-16T09:19:40;11.40;99.90
52513;DHT22;38422;53.172;6.974;2024-02-16T09:22:05;11.50;99.90
52513;DHT22;38422;53.172;6.974;2024-02-16T09:24:32;11.50;99.90
52513;DHT22;38422;53.172;6.974;2024-02-16T09:26:58;11.50;99.90
52513;DHT22;38422;53.172;6.974;2024-02-16T09:29:29;11.60;99.90
52513;DHT22;38422;53.172;6.974;2024-02-16T09:31:54;11.60;99.90
52513;DHT22;38422;53.172;6.974;2024-02-16T09:34:20;11.70;99.90
52513;DHT22;38422;53.172;6.974;2024-02-16T09:36:46;11.70;99.90
52513;DHT22;38422;53.172;6.974;2024-02-16T09:39:12;11.70;99.90
52513;DHT22;38422;53.172;6.974;2024-02-16T09:41:41;11.80;99.90
52513;DHT22;38422;53.172;6.974;2024-02-16T09:44:07;11.80;99.90
52513;DHT22;38422;53.172;6.974;2024-02-16T09:46:35;11.80;99.90
52513;DHT22;38422;53.172;6.974;2024-02-16T09:49:04;11.90;99.90
52513;DHT22;38422;53.172;6.974;2024-02-16T09:51:30;11.90;99.90
52513;DHT22;38422;53.172;6.974;2024-02-16T09:53:56;12.00;99.90
52513;DHT22;38422;53.172;6.974;2024-02-16T09:56:22;12.00;99.90
52513;DHT22;38422;53.172;6.974;2024-02-16T09:58:53;12.10;99.90
52513;DHT22;38422;53.172;6.974;2024-02-16T10:01:21;12.10;99.90
52513;DHT22;38422;53.172;6.974;2024-02-16T10:03:47;12.20;99.90
52513;DHT22;38422;53.172;6.974;2024-02-16T10:06:15;12.20;99.90
52513;DHT22;38422;53.172;6.974;2024-02-16T10:11:18;12.30;99.90
52513;DHT22;38422;53.172;6.974;2024-02-16T10:13:56;12.40;99.90
52513;DHT22;38422;53.172;6.974;2024-02-16T10:16:23;12.50;99.90
52513;DHT22;38422;53.172;6.974;2024-02-16T10:18:49;12.50;99.90
52513;DHT22;38422;53.172;6.974;2024-02-16T10:21:24;12.60;99.90
52513;DHT22;38422;53.172;6.974;2024-02-16T10:24:10;12.60;99.90
52513;DHT22;38422;53.172;6.974;2024-02-16T10:26:37;12.60;99.90
52513;DHT22;38422;53.172;6.974;2024-02-16T10:29:05;12.70;99.90
52513;DHT22;38422;53.172;6.974;2024-02-16T10:31:31;12.70;99.90
52513;DHT22;38422;53.172;6.974;2024-02-16T10:34:00;12.80;99.90
52513;DHT22;38422;53.172;6.974;2024-02-16T10:36:27;12.80;99.90
52513;DHT22;38422;53.172;6.974;2024-02-16T10:38:55;12.80;99.90
52513;DHT22;38422;53.172;6.974;2024-02-16T10:41:27;12.90;99.90
52513;DHT22;38422;53.172;6.974;2024-02-16T10:43:56;12.90;99.90
52513;DHT22;38422;53.172;6.974;2024-02-16T10:46:22;13.00;99.90
52513;DHT22;38422;53.172;6.974;2024-02-16T10:48:48;13.00;99.90
52513;DHT22;38422;53.172;6.974;2024-02-16T10:51:15;13.10;99.90
52513;DHT22;38422;53.172;6.974;2024-02-16T10:53:45;13.10;99.90
52513;DHT22;38422;53.172;6.974;2024-02-16T10:56:13;13.20;99.90
52513;DHT22;38422;53.172;6.974;2024-02-16T10:58:39;13.20;99.90
52513;DHT22;38422;53.172;6.974;2024-02-16T11:01:15;13.30;99.90
52513;DHT22;38422;53.172;6.974;2024-02-16T11:03:41;13.30;99.90
52513;DHT22;38422;53.172;6.974;2024-02-16T11:06:17;13.30;99.90
52513;DHT22;38422;53.172;6.974;2024-02-16T11:08:43;13.30;99.90
52513;DHT22;38422;53.172;6.974;2024-02-16T11:11:09;13.30;99.90
52513;DHT22;38422;53.172;6.974;2024-02-16T11:13:37;13.30;99.90
52513;DHT22;38422;53.172;6.974;2024-02-16T11:16:12;13.20;99.90
52513;DHT22;38422;53.172;6.974;2024-02-16T11:18:42;13.20;99.90
52513;DHT22;38422;53.172;6.974;2024-02-16T11:21:15;13.10;99.90
52513;DHT22;38422;53.172;6.974;2024-02-16T11:23:42;13.00;99.90
52513;DHT22;38422;53.172;6.974;2024-02-16T11:26:12;13.00;99.90
52513;DHT22;38422;53.172;6.974;2024-02-16T11:28:41;13.00;99.90
52513;DHT22;38422;53.172;6.974;2024-02-16T11:31:07;12.90;99.90
52513;DHT22;38422;53.172;6.974;2024-02-16T11:33:33;12.90;99.90
52513;DHT22;38422;53.172;6.974;2024-02-16T11:36:01;12.90;99.90
52513;DHT22;38422;53.172;6.974;2024-02-16T11:38:27;12.80;99.90
52513;DHT22;38422;53.172;6.974;2024-02-16T11:40:57;12.80;99.90
52513;DHT22;38422;53.172;6.974;2024-02-16T11:43:25;12.80;99.90
52513;DHT22;38422;53.172;6.974;2024-02-16T11:45:51;12.80;99.90
52513;DHT22;38422;53.172;6.974;2024-02-16T11:48:25;12.70;99.90
52513;DHT22;38422;53.172;6.974;2024-02-16T11:51:00;12.70;99.90
52513;DHT22;38422;53.172;6.974;2024-02-16T11:53:25;12.60;99.90
52513;DHT22;38422;53.172;6.974;2024-02-16T11:55:51;12.60;99.90
52513;DHT22;38422;53.172;6.974;2024-02-16T11:58:17;12.60;99.90
52513;DHT22;38422;53.172;6.974;2024-02-16T12:00:45;12.60;99.90
52513;DHT22;38422;53.172;6.974;2024-02-16T12:03:11;12.50;99.90
52513;DHT22;38422;53.172;6.974;2024-02-16T12:05:37;12.40;99.90
52513;DHT22;38422;53.172;6.974;2024-02-16T12:08:06;12.30;99.90
52513;DHT22;38422;53.172;6.974;2024-02-16T12:10:32;12.20;99.90
52513;DHT22;38422;53.172;6.974;2024-02-16T12:12:58;12.10;99.90
52513;DHT22;38422;53.172;6.974;2024-02-16T12:15:24;12.10;99.90
52513;DHT22;38422;53.172;6.974;2024-02-16T12:17:59;12.00;99.90
52513;DHT22;38422;53.172;6.974;2024-02-16T12:20:25;11.90;99.90
52513;DHT22;38422;53.172;6.974;2024-02-16T12:22:51;11.80;99.90
52513;DHT22;38422;53.172;6.974;2024-02-16T12:25:17;11.80;99.90
52513;DHT22;38422;53.172;6.974;2024-02-16T12:27:43;11.70;99.90
52513;DHT22;38422;53.172;6.974;2024-02-16T12:30:09;11.70;99.90
52513;DHT22;38422;53.172;6.974;2024-02-16T12:32:34;11.70;99.90
52513;DHT22;38422;53.172;6.974;2024-02-16T12:35:00;11.60;99.90
52513;DHT22;38422;53.172;6.974;2024-02-16T12:37:26;11.60;99.90
52513;DHT22;38422;53.172;6.974;2024-02-16T12:39:51;11.50;99.90
52513;DHT22;38422;53.172;6.974;2024-02-16T12:42:17;11.50;99.90
52513;DHT22;38422;53.172;6.974;2024-02-16T12:44:43;11.50;99.90
52513;DHT22;38422;53.172;6.974;2024-02-16T12:47:09;11.50;99.90
52513;DHT22;38422;53.172;6.974;2024-02-16T12:49:34;11.50;99.90
52513;DHT22;38422;53.172;6.974;2024-02-16T12:52:01;11.50;99.90
52513;DHT22;38422;53.172;6.974;2024-02-16T12:54:26;11.50;99.90
52513;DHT22;38422;53.172;6.974;2024-02-16T12:56:52;11.50;99.90
52513;DHT22;38422;53.172;6.974;2024-02-16T12:59:19;11.50;99.90
52513;DHT22;38422;53.172;6.974;2024-02-16T13:01:45;11.50;99.90
52513;DHT22;38422;53.172;6.974;2024-02-16T13:04:11;11.50;99.90
52513;DHT22;38422;53.172;6.974;2024-02-16T13:06:38;11.50;99.90
52513;DHT22;38422;53.172;6.974;2024-02-16T13:09:03;11.50;99.90
52513;DHT22;38422;53.172;6.974;2024-02-16T13:11:30;11.50;99.90
52513;DHT22;38422;53.172;6.974;2024-02-16T13:13:55;11.50;99.90
52513;DHT22;38422;53.172;6.974;2024-02-16T13:16:21;11.60;99.90
52513;DHT22;38422;53.172;6.974;2024-02-16T13:18:47;11.60;99.90
52513;DHT22;38422;53.172;6.974;2024-02-16T13:21:12;11.60;99.90
52513;DHT22;38422;53.172;6.974;2024-02-16T13:23:38;11.60;99.90
52513;DHT22;38422;53.172;6.974;2024-02-16T13:26:04;11.60;99.90
52513;DHT22;38422;53.172;6.974;2024-02-16T13:28:30;11.60;99.90
52513;DHT22;38422;53.172;6.974;2024-02-16T13:30:56;11.60;99.90
52513;DHT22;38422;53.172;6.974;2024-02-16T13:33:21;11.60;99.90
52513;DHT22;38422;53.172;6.974;2024-02-16T13:35:47;11.60;99.90
52513;DHT22;38422;53.172;6.974;2024-02-16T13:38:13;11.50;99.90
52513;DHT22;38422;53.172;6.974;2024-02-16T13:40:39;11.50;99.90
52513;DHT22;38422;53.172;6.974;2024-02-16T13:43:05;11.50;99.90
52513;DHT22;38422;53.172;6.974;2024-02-16T13:45:49;11.50;99.90
52513;DHT22;38422;53.172;6.974;2024-02-16T13:48:16;11.60;99.90
52513;DHT22;38422;53.172;6.974;2024-02-16T13:50:47;11.50;99.90
52513;DHT22;38422;53.172;6.974;2024-02-16T13:53:13;11.60;99.90
52513;DHT22;38422;53.172;6.974;2024-02-16T13:55:41;11.60;99.90
52513;DHT22;38422;53.172;6.974;2024-02-16T13:58:06;11.60;99.90
52513;DHT22;38422;53.172;6.974;2024-02-16T14:00:32;11.60;99.90
52513;DHT22;38422;53.172;6.974;2024-02-16T14:02:58;11.60;99.90
52513;DHT22;38422;53.172;6.974;2024-02-16T14:05:23;11.60;99.90
52513;DHT22;38422;53.172;6.974;2024-02-16T14:07:51;11.60;99.90
52513;DHT22;38422;53.172;6.974;2024-02-16T14:10:17;11.50;99.90
52513;DHT22;38422;53.172;6.974;2024-02-16T14:12:45;11.60;99.90
52513;DHT22;38422;53.172;6.974;2024-02-16T14:15:10;11.60;99.90
52513;DHT22;38422;53.172;6.974;2024-02-16T14:17:44;11.60;99.90
52513;DHT22;38422;53.172;6.974;2024-02-16T14:20:10;11.50;99.90
52513;DHT22;38422;53.172;6.974;2024-02-16T14:22:36;11.50;99.90
52513;DHT22;38422;53.172;6.974;2024-02-16T14:25:02;11.50;99.90
52513;DHT22;38422;53.172;6.974;2024-02-16T14:27:28;11.60;99.90
52513;DHT22;38422;53.172;6.974;2024-02-16T14:29:55;11.60;99.90
52513;DHT22;38422;53.172;6.974;2024-02-16T14:32:21;11.60;99.90
52513;DHT22;38422;53.172;6.974;2024-02-16T14:34:46;11.60;99.90
52513;DHT22;38422;53.172;6.974;2024-02-16T14:37:12;11.60;99.90
52513;DHT22;38422;53.172;6.974;2024-02-16T14:39:38;11.60;99.90
52513;DHT22;38422;53.172;6.974;2024-02-16T14:42:04;11.60;99.90
52513;DHT22;38422;53.172;6.974;2024-02-16T14:44:29;11.60;99.90
52513;DHT22;38422;53.172;6.974;2024-02-16T14:46:55;11.50;99.90
52513;DHT22;38422;53.172;6.974;2024-02-16T14:49:22;11.50;99.90
52513;DHT22;38422;53.172;6.974;2024-02-16T14:51:50;11.50;99.90
52513;DHT22;38422;53.172;6.974;2024-02-16T14:54:16;11.50;99.90
52513;DHT22;38422;53.172;6.974;2024-02-16T14:56:41;11.50;99.90
52513;DHT22;38422;53.172;6.974;2024-02-16T14:59:07;11.50;99.90
52513;DHT22;38422;53.172;6.974;2024-02-16T15:01:36;11.50;99.90
52513;DHT22;38422;53.172;6.974;2024-02-16T15:04:03;11.50;99.90
52513;DHT22;38422;53.172;6.974;2024-02-16T15:06:29;11.50;99.90
52513;DHT22;38422;53.172;6.974;2024-02-16T15:08:54;11.50;99.90
52513;DHT22;38422;53.172;6.974;2024-02-16T15:11:20;11.50;99.90
52513;DHT22;38422;53.172;6.974;2024-02-16T15:13:46;11.50;99.90
52513;DHT22;38422;53.172;6.974;2024-02-16T15:16:11;11.60;99.90
52513;DHT22;38422;53.172;6.974;2024-02-16T15:18:37;11.60;99.90
52513;DHT22;38422;53.172;6.974;2024-02-16T15:21:03;11.60;99.90
52513;DHT22;38422;53.172;6.974;2024-02-16T15:23:28;11.60;99.90
52513;DHT22;38422;53.172;6.974;2024-02-16T15:25:54;11.70;99.90
52513;DHT22;38422;53.172;6.974;2024-02-16T15:28:20;11.70;99.90